Time;durP1;ratioP1;P1;durP2;ratioP2;P2;SDS_P1;SDS_P2;PMS_P1;PMS_P2;Temp;Humidity;BMP_temperature;BMP_pressure;BME280_temperature;BME280_humidity;BME280_pressure;Samples;Min_cycle;Max_cycle;Signal;HPM_P1;HPM_P2
2023/06/27 00:01:52;;;;;;;3.92;3.40;;;;;;;;;;5074573;28;20017;-83
2023/06/27 00:04:23;;;;;;;5.43;2.92;;;;;;;;;;5065386;28;20016;-80
2023/06/27 00:06:49;;;;;;;8.63;3.47;;;;;;;;;;5066918;28;20032;-81
2023/06/27 00:09:15;;;;;;;7.85;2.83;;;;;;;;;;5070359;28;20710;-79
2023/06/27 00:11:41;;;;;;;8.73;3.25;;;;;;;;;;5071548;28;20111;-81
2023/06/27 00:14:08;;;;;;;6.10;2.97;;;;;;;;;;5073306;28;20052;-82
2023/06/27 00:16:35;;;;;;;9.55;3.33;;;;;;;;;;5088600;28;20107;-82
2023/06/27 00:19:04;;;;;;;4.75;3.00;;;;;;;;;;5074348;28;20028;-79
2023/06/27 00:21:35;;;;;;;8.75;3.90;;;;;;;;;;5075578;28;20112;-78
2023/06/27 00:24:01;;;;;;;5.68;3.20;;;;;;;;;;5081052;28;20025;-81
2023/06/27 00:26:28;;;;;;;5.20;3.08;;;;;;;;;;5076895;28;20042;-82
2023/06/27 00:28:57;;;;;;;4.25;3.00;;;;;;;;;;5075577;28;20362;-78
2023/06/27 00:31:24;;;;;;;8.73;3.40;;;;;;;;;;5086466;28;20068;-79
2023/06/27 00:33:50;;;;;;;13.00;4.40;;;;;;;;;;5082660;28;20516;-79
2023/06/27 00:36:16;;;;;;;9.27;3.70;;;;;;;;;;5072295;28;20828;-78
2023/06/27 00:38:43;;;;;;;7.93;3.30;;;;;;;;;;5087190;28;20032;-79
2023/06/27 00:41:09;;;;;;;7.32;3.60;;;;;;;;;;5089216;28;20051;-82
2023/06/27 00:43:35;;;;;;;7.65;4.60;;;;;;;;;;5087750;28;20071;-80
2023/06/27 00:46:06;;;;;;;5.65;3.08;;;;;;;;;;5072223;28;20036;-79
2023/06/27 00:48:33;;;;;;;7.70;3.45;;;;;;;;;;5088494;28;20077;-79
2023/06/27 00:51:00;;;;;;;7.35;3.33;;;;;;;;;;5068588;28;20036;-83
2023/06/27 00:53:27;;;;;;;10.23;3.65;;;;;;;;;;5084087;28;20580;-81
2023/06/27 00:55:53;;;;;;;4.43;3.08;;;;;;;;;;5079203;28;20557;-82
2023/06/27 00:58:20;;;;;;;7.40;2.95;;;;;;;;;;5084052;28;20059;-83
2023/06/27 01:00:48;;;;;;;7.80;3.20;;;;;;;;;;5086283;28;20033;-80
2023/06/27 01:03:14;;;;;;;5.63;3.75;;;;;;;;;;5071955;28;20111;-83
2023/06/27 01:05:40;;;;;;;8.73;3.17;;;;;;;;;;5063644;28;20039;-81
2023/06/27 01:08:12;;;;;;;6.88;3.08;;;;;;;;;;5072131;28;20029;-83
2023/06/27 01:10:53;;;;;;;10.77;3.88;;;;;;;;;;5088642;28;20473;-82
2023/06/27 01:13:22;;;;;;;5.72;3.15;;;;;;;;;;5061983;28;20040;-83
2023/06/27 01:15:48;;;;;;;7.03;3.40;;;;;;;;;;5066719;28;20124;-84
2023/06/27 01:18:15;;;;;;;6.20;2.80;;;;;;;;;;5084973;28;20424;-83
2023/06/27 01:20:45;;;;;;;7.60;3.20;;;;;;;;;;5073328;28;20349;-81
2023/06/27 01:23:11;;;;;;;7.90;3.58;;;;;;;;;;5080335;28;20029;-80
2023/06/27 01:25:37;;;;;;;4.45;3.22;;;;;;;;;;5082650;28;20124;-80
2023/06/27 01:28:05;;;;;;;5.70;3.47;;;;;;;;;;5077793;28;20524;-80
2023/06/27 01:30:34;;;;;;;8.15;2.83;;;;;;;;;;5064995;28;20033;-81
2023/06/27 01:33:04;;;;;;;6.93;3.08;;;;;;;;;;5079279;28;20139;-85
2023/06/27 01:35:44;;;;;;;10.20;3.10;;;;;;;;;;5081775;28;20055;-80
2023/06/27 01:38:17;;;;;;;3.67;3.22;;;;;;;;;;5063393;28;20021;-82
2023/06/27 01:40:44;;;;;;;11.27;3.35;;;;;;;;;;5082636;28;20492;-81
2023/06/27 01:43:11;;;;;;;7.68;2.72;;;;;;;;;;5083831;28;20052;-82
2023/06/27 01:45:39;;;;;;;5.60;3.22;;;;;;;;;;5085566;28;20033;-79
2023/06/27 01:48:05;;;;;;;4.25;2.72;;;;;;;;;;5067176;28;20029;-80
2023/06/27 01:50:31;;;;;;;7.45;3.53;;;;;;;;;;5068969;28;20051;-83
2023/06/27 01:52:58;;;;;;;5.00;3.15;;;;;;;;;;5081445;28;20025;-80
2023/06/27 01:55:24;;;;;;;4.47;2.90;;;;;;;;;;5069921;28;20035;-80
2023/06/27 01:57:50;;;;;;;6.68;3.15;;;;;;;;;;5065368;28;20025;-83
2023/06/27 02:00:17;;;;;;;7.25;3.30;;;;;;;;;;5080703;28;20762;-80
2023/06/27 02:02:45;;;;;;;6.35;3.25;;;;;;;;;;5079245;28;20098;-82
2023/06/27 02:05:11;;;;;;;8.98;3.75;;;;;;;;;;5080224;28;20037;-80
2023/06/27 02:07:37;;;;;;;5.97;2.90;;;;;;;;;;5064733;28;20066;-81
2023/06/27 02:10:03;;;;;;;6.25;3.20;;;;;;;;;;5075400;28;20063;-79
2023/06/27 02:12:29;;;;;;;6.22;3.65;;;;;;;;;;5085073;28;20091;-81
2023/06/27 02:14:55;;;;;;;10.10;4.20;;;;;;;;;;5078527;28;20031;-79
2023/06/27 02:17:21;;;;;;;7.93;4.13;;;;;;;;;;5065483;28;20895;-79
2023/06/27 02:19:47;;;;;;;8.88;3.40;;;;;;;;;;5081792;28;20060;-81
2023/06/27 02:22:13;;;;;;;7.82;3.50;;;;;;;;;;5060719;28;20482;-80
2023/06/27 02:24:39;;;;;;;7.90;3.28;;;;;;;;;;5078110;28;20031;-80
2023/06/27 02:27:07;;;;;;;6.88;3.40;;;;;;;;;;5065076;28;20078;-83
2023/06/27 02:29:33;;;;;;;11.25;3.47;;;;;;;;;;5082457;28;20055;-81
2023/06/27 02:31:59;;;;;;;8.05;4.15;;;;;;;;;;5085053;28;20036;-81
2023/06/27 02:34:25;;;;;;;11.55;3.53;;;;;;;;;;5068998;28;20028;-82
2023/06/27 02:36:51;;;;;;;9.82;3.90;;;;;;;;;;5068265;28;20075;-82
2023/06/27 02:39:17;;;;;;;8.48;3.75;;;;;;;;;;5088767;28;20037;-82
2023/06/27 02:41:43;;;;;;;13.73;4.78;;;;;;;;;;5089108;28;20465;-82
2023/06/27 02:44:10;;;;;;;9.20;3.97;;;;;;;;;;5067585;28;20166;-83
2023/06/27 02:46:36;;;;;;;6.93;3.75;;;;;;;;;;5071736;28;20111;-82
2023/06/27 02:49:05;;;;;;;8.18;3.70;;;;;;;;;;5087505;28;20059;-80
2023/06/27 02:51:31;;;;;;;9.45;3.72;;;;;;;;;;5066672;28;20020;-80
2023/06/27 02:53:57;;;;;;;5.03;3.00;;;;;;;;;;5069743;28;20043;-82
2023/06/27 02:56:23;;;;;;;8.55;3.75;;;;;;;;;;5087088;28;20025;-81
2023/06/27 02:58:49;;;;;;;9.15;4.25;;;;;;;;;;5069579;28;20021;-81
2023/06/27 03:01:16;;;;;;;10.32;4.82;;;;;;;;;;5089038;28;20032;-80
2023/06/27 03:03:43;;;;;;;11.43;4.20;;;;;;;;;;5086144;28;20025;-83
2023/06/27 03:06:10;;;;;;;7.85;4.70;;;;;;;;;;5069422;28;21125;-83
2023/06/27 03:08:39;;;;;;;7.43;3.97;;;;;;;;;;5069833;28;20025;-81
2023/06/27 03:11:05;;;;;;;7.30;3.65;;;;;;;;;;5069157;28;20472;-82
2023/06/27 03:13:31;;;;;;;9.50;4.15;;;;;;;;;;5082531;28;20024;-84
2023/06/27 03:15:58;;;;;;;10.27;4.05;;;;;;;;;;5069305;28;20461;-81
2023/06/27 03:18:24;;;;;;;7.15;4.07;;;;;;;;;;5081898;28;20041;-81
2023/06/27 03:20:50;;;;;;;10.63;4.05;;;;;;;;;;5081045;28;20097;-82
2023/06/27 03:23:16;;;;;;;7.90;3.53;;;;;;;;;;5069006;28;20053;-83
2023/06/27 03:25:42;;;;;;;7.22;3.80;;;;;;;;;;5083955;28;20032;-83
2023/06/27 03:28:08;;;;;;;9.60;5.18;;;;;;;;;;5075487;28;20486;-80
2023/06/27 03:30:34;;;;;;;8.05;3.95;;;;;;;;;;5075229;28;20123;-81
2023/06/27 03:33:00;;;;;;;5.78;3.33;;;;;;;;;;5083548;28;20037;-81
2023/06/27 03:35:26;;;;;;;8.63;3.88;;;;;;;;;;5085231;28;20032;-80
2023/06/27 03:37:53;;;;;;;10.85;4.68;;;;;;;;;;5065426;28;20021;-80
2023/06/27 03:40:19;;;;;;;6.00;3.53;;;;;;;;;;5062050;28;20032;-80
2023/06/27 03:42:45;;;;;;;7.43;4.13;;;;;;;;;;5079703;28;20115;-81
2023/06/27 03:45:11;;;;;;;10.35;3.95;;;;;;;;;;5063495;28;20041;-79
2023/06/27 03:47:38;;;;;;;7.30;3.83;;;;;;;;;;5066801;28;20495;-81
2023/06/27 03:50:04;;;;;;;8.85;3.67;;;;;;;;;;5072023;28;20024;-79
2023/06/27 03:52:30;;;;;;;5.57;3.90;;;;;;;;;;5086202;28;20040;-80
2023/06/27 03:54:57;;;;;;;6.95;3.53;;;;;;;;;;5072102;28;20048;-82
2023/06/27 03:57:23;;;;;;;9.60;3.75;;;;;;;;;;5084310;28;20448;-79
2023/06/27 03:59:49;;;;;;;9.52;4.25;;;;;;;;;;5068869;28;20031;-83
2023/06/27 04:02:15;;;;;;;10.50;5.20;;;;;;;;;;5072728;28;20500;-81
2023/06/27 04:04:41;;;;;;;7.88;4.05;;;;;;;;;;5071844;28;20025;-82
2023/06/27 04:07:07;;;;;;;9.95;4.35;;;;;;;;;;5070733;28;20118;-82
2023/06/27 04:09:33;;;;;;;6.78;4.75;;;;;;;;;;5070786;28;20040;-79
2023/06/27 04:12:00;;;;;;;8.35;5.10;;;;;;;;;;5080022;28;20512;-79
2023/06/27 04:14:27;;;;;;;10.43;4.32;;;;;;;;;;5082922;28;20121;-79
2023/06/27 04:16:53;;;;;;;10.13;3.97;;;;;;;;;;5067445;28;20017;-82
2023/06/27 04:19:20;;;;;;;8.18;4.00;;;;;;;;;;5082410;28;20021;-79
2023/06/27 04:21:46;;;;;;;6.50;3.78;;;;;;;;;;5069303;28;20595;-80
2023/06/27 04:24:12;;;;;;;6.45;4.35;;;;;;;;;;5086090;28;20024;-80
2023/06/27 04:26:38;;;;;;;8.07;3.75;;;;;;;;;;5074983;28;20056;-80
2023/06/27 04:29:04;;;;;;;8.30;4.25;;;;;;;;;;5065714;28;20046;-81
2023/06/27 04:31:30;;;;;;;10.55;3.90;;;;;;;;;;5074132;28;20035;-82
2023/06/27 04:33:59;;;;;;;13.63;4.30;;;;;;;;;;5090044;28;20028;-80
2023/06/27 04:36:25;;;;;;;8.50;3.95;;;;;;;;;;5082885;28;20040;-83
2023/06/27 04:38:52;;;;;;;7.60;3.85;;;;;;;;;;5074995;28;20024;-80
2023/06/27 04:41:18;;;;;;;8.48;4.07;;;;;;;;;;5063443;28;20054;-83
2023/06/27 04:43:44;;;;;;;8.95;5.07;;;;;;;;;;5073276;28;20400;-81
2023/06/27 04:46:10;;;;;;;10.15;4.55;;;;;;;;;;5085812;28;20036;-80
2023/06/27 04:48:36;;;;;;;7.95;3.78;;;;;;;;;;5068143;28;20073;-82
2023/06/27 04:51:03;;;;;;;10.25;4.30;;;;;;;;;;5067017;28;20044;-81
2023/06/27 04:53:30;;;;;;;8.80;5.10;;;;;;;;;;5079738;28;20052;-82
2023/06/27 04:55:56;;;;;;;11.73;4.43;;;;;;;;;;5080858;28;20056;-80
2023/06/27 04:58:22;;;;;;;9.02;4.28;;;;;;;;;;5083433;28;20036;-80
2023/06/27 05:00:48;;;;;;;6.45;3.90;;;;;;;;;;5080872;28;20113;-79
2023/06/27 05:03:15;;;;;;;9.07;5.07;;;;;;;;;;5071117;28;20374;-84
2023/06/27 05:05:41;;;;;;;11.40;5.20;;;;;;;;;;5084889;28;20078;-79
2023/06/27 05:08:07;;;;;;;11.02;4.38;;;;;;;;;;5081079;28;20028;-79
2023/06/27 05:10:34;;;;;;;9.57;4.20;;;;;;;;;;5069023;28;20028;-80
2023/06/27 05:13:00;;;;;;;10.20;3.95;;;;;;;;;;5068754;28;20046;-80
2023/06/27 05:15:28;;;;;;;9.50;5.22;;;;;;;;;;5081861;28;20042;-81
2023/06/27 05:17:55;;;;;;;12.50;4.45;;;;;;;;;;5068676;28;20017;-80
2023/06/27 05:20:22;;;;;;;6.55;4.47;;;;;;;;;;5086094;28;20089;-80
2023/06/27 05:22:48;;;;;;;10.93;4.72;;;;;;;;;;5069985;28;20678;-79
2023/06/27 05:25:14;;;;;;;7.65;4.07;;;;;;;;;;5067476;28;20029;-79
2023/06/27 05:27:40;;;;;;;7.40;4.55;;;;;;;;;;5069744;28;20464;-80
2023/06/27 05:30:07;;;;;;;7.10;3.83;;;;;;;;;;5067328;28;20086;-82
2023/06/27 05:32:33;;;;;;;9.40;4.68;;;;;;;;;;5085396;28;20113;-78
2023/06/27 05:34:59;;;;;;;11.13;5.22;;;;;;;;;;5082657;28;20598;-79
2023/06/27 05:37:25;;;;;;;5.65;3.92;;;;;;;;;;5086007;28;20035;-79
2023/06/27 05:39:53;;;;;;;6.65;3.50;;;;;;;;;;5070630;28;20021;-86
2023/06/27 05:42:20;;;;;;;6.13;3.83;;;;;;;;;;5083934;28;20378;-80
2023/06/27 05:44:46;;;;;;;8.88;4.15;;;;;;;;;;5082890;28;20029;-79
2023/06/27 05:47:13;;;;;;;8.32;4.70;;;;;;;;;;5067729;28;20044;-81
2023/06/27 05:49:39;;;;;;;9.15;3.95;;;;;;;;;;5061566;28;20131;-78
2023/06/27 05:52:06;;;;;;;8.38;3.90;;;;;;;;;;5065293;28;20059;-89
2023/06/27 05:54:32;;;;;;;11.52;4.60;;;;;;;;;;5084514;28;20055;-80
2023/06/27 05:56:58;;;;;;;6.13;3.72;;;;;;;;;;5083972;28;20074;-80
2023/06/27 05:59:24;;;;;;;8.93;4.38;;;;;;;;;;5065622;28;20028;-81
2023/06/27 06:01:51;;;;;;;8.63;3.90;;;;;;;;;;5076218;28;20025;-79
2023/06/27 06:04:18;;;;;;;9.73;3.90;;;;;;;;;;5077098;28;20067;-79
2023/06/27 06:06:46;;;;;;;7.00;4.32;;;;;;;;;;5080123;28;20059;-79
2023/06/27 06:09:12;;;;;;;7.57;4.30;;;;;;;;;;5076390;28;20123;-82
2023/06/27 06:11:38;;;;;;;8.18;4.55;;;;;;;;;;5079429;28;20075;-79
2023/06/27 06:14:05;;;;;;;5.13;3.83;;;;;;;;;;5063425;28;20060;-84
2023/06/27 06:16:35;;;;;;;7.30;4.60;;;;;;;;;;5098672;28;20028;-87
2023/06/27 06:19:01;;;;;;;11.23;5.13;;;;;;;;;;5081739;28;20494;-82
2023/06/27 06:21:27;;;;;;;6.00;3.85;;;;;;;;;;5085197;28;20028;-79
2023/06/27 06:23:53;;;;;;;7.43;3.78;;;;;;;;;;5064630;28;20452;-79
2023/06/27 06:26:20;;;;;;;10.20;3.95;;;;;;;;;;5081189;28;20032;-79
2023/06/27 06:28:47;;;;;;;10.32;4.80;;;;;;;;;;5068070;28;20028;-84
2023/06/27 06:31:16;;;;;;;6.72;4.22;;;;;;;;;;5080660;28;20503;-82
2023/06/27 06:33:46;;;;;;;8.43;4.25;;;;;;;;;;5079358;28;20041;-81
2023/06/27 06:36:13;;;;;;;9.98;4.30;;;;;;;;;;5064866;28;20080;-80
2023/06/27 06:38:40;;;;;;;6.88;4.30;;;;;;;;;;5063101;28;20021;-79
2023/06/27 06:41:06;;;;;;;11.40;4.40;;;;;;;;;;5076975;28;20107;-79
2023/06/27 06:43:32;;;;;;;6.15;3.88;;;;;;;;;;5078512;28;20504;-82
2023/06/27 06:45:59;;;;;;;10.48;4.60;;;;;;;;;;5078316;28;20037;-79
2023/06/27 06:48:25;;;;;;;10.43;4.68;;;;;;;;;;5063478;28;20012;-82
2023/06/27 06:50:52;;;;;;;7.57;4.53;;;;;;;;;;5084019;28;20476;-80
2023/06/27 06:53:19;;;;;;;9.50;4.43;;;;;;;;;;5068121;28;20025;-79
2023/06/27 06:55:45;;;;;;;9.43;5.70;;;;;;;;;;5065744;28;20028;-78
2023/06/27 06:58:11;;;;;;;7.70;5.72;;;;;;;;;;5076812;28;20024;-82
2023/06/27 07:00:37;;;;;;;13.35;5.40;;;;;;;;;;5082230;28;20082;-79
2023/06/27 07:03:03;;;;;;;7.82;5.20;;;;;;;;;;5067374;28;20025;-78
2023/06/27 07:05:30;;;;;;;10.75;5.10;;;;;;;;;;5077038;28;20037;-78
2023/06/27 07:07:56;;;;;;;13.23;6.15;;;;;;;;;;5082470;28;20029;-79
2023/06/27 07:10:22;;;;;;;11.93;5.75;;;;;;;;;;5064331;28;20111;-83
2023/06/27 07:12:49;;;;;;;10.13;4.43;;;;;;;;;;5076231;28;20032;-84
2023/06/27 07:15:17;;;;;;;9.68;5.93;;;;;;;;;;5063286;28;20035;-80
2023/06/27 07:17:43;;;;;;;13.52;6.35;;;;;;;;;;5067965;28;20229;-78
2023/06/27 07:20:10;;;;;;;12.20;5.57;;;;;;;;;;5071294;28;20020;-81
2023/06/27 07:22:36;;;;;;;8.77;5.30;;;;;;;;;;5084273;28;20039;-78
2023/06/27 07:25:02;;;;;;;13.82;6.13;;;;;;;;;;5069750;28;20074;-81
2023/06/27 07:27:28;;;;;;;12.85;6.20;;;;;;;;;;5069047;28;20035;-80
2023/06/27 07:29:54;;;;;;;10.40;6.32;;;;;;;;;;5069124;28;20029;-81
2023/06/27 07:32:21;;;;;;;10.75;5.72;;;;;;;;;;5065068;28;20094;-79
2023/06/27 07:34:47;;;;;;;10.35;6.43;;;;;;;;;;5084601;28;20029;-84
2023/06/27 07:37:13;;;;;;;12.75;6.20;;;;;;;;;;5065853;28;20096;-78
2023/06/27 07:39:39;;;;;;;10.20;6.00;;;;;;;;;;5081646;28;20036;-84
2023/06/27 07:42:05;;;;;;;10.88;5.50;;;;;;;;;;5083038;28;20133;-83
2023/06/27 07:44:32;;;;;;;16.38;6.82;;;;;;;;;;5066137;28;20071;-83
2023/06/27 07:46:58;;;;;;;11.48;5.70;;;;;;;;;;5083457;28;20378;-80
2023/06/27 07:49:24;;;;;;;11.05;6.00;;;;;;;;;;5070070;28;20032;-87
2023/06/27 07:51:51;;;;;;;11.20;6.63;;;;;;;;;;5083625;28;20036;-84
2023/06/27 07:54:19;;;;;;;10.65;5.80;;;;;;;;;;5070573;28;20046;-83
2023/06/27 07:56:47;;;;;;;15.38;6.90;;;;;;;;;;5068379;28;20121;-82
2023/06/27 07:59:13;;;;;;;12.13;6.53;;;;;;;;;;5066097;28;20028;-82
2023/06/27 08:01:40;;;;;;;14.23;5.68;;;;;;;;;;5083120;28;20029;-83
2023/06/27 08:04:06;;;;;;;10.23;6.90;;;;;;;;;;5072747;28;20036;-81
2023/06/27 08:06:32;;;;;;;14.00;6.70;;;;;;;;;;5081916;28;20021;-86
2023/06/27 08:08:58;;;;;;;12.15;7.60;;;;;;;;;;5084494;28;20674;-84
2023/06/27 08:11:25;;;;;;;14.00;6.63;;;;;;;;;;5068898;28;20028;-82
2023/06/27 08:13:51;;;;;;;11.57;6.15;;;;;;;;;;5062098;28;20025;-79
2023/06/27 08:16:17;;;;;;;11.52;6.75;;;;;;;;;;5085094;28;20424;-81
2023/06/27 08:18:43;;;;;;;15.60;7.93;;;;;;;;;;5081535;28;20025;-82
2023/06/27 08:21:09;;;;;;;16.02;7.95;;;;;;;;;;5069665;28;20028;-85
2023/06/27 08:23:35;;;;;;;17.00;7.57;;;;;;;;;;5086666;28;20039;-82
2023/06/27 08:26:01;;;;;;;12.05;7.80;;;;;;;;;;5086923;28;20032;-82
2023/06/27 08:28:28;;;;;;;16.55;8.55;;;;;;;;;;5087020;28;20036;-81
2023/06/27 08:30:55;;;;;;;12.52;6.95;;;;;;;;;;5082590;28;20047;-81
2023/06/27 08:33:23;;;;;;;13.93;8.02;;;;;;;;;;5082035;28;20112;-83
2023/06/27 08:35:53;;;;;;;13.70;8.55;;;;;;;;;;5067835;28;20036;-85
2023/06/27 08:38:19;;;;;;;17.42;10.32;;;;;;;;;;5077378;28;20024;-82
2023/06/27 08:40:48;;;;;;;13.63;9.38;;;;;;;;;;5073129;28;20059;-84
2023/06/27 08:43:15;;;;;;;19.42;8.68;;;;;;;;;;5064191;28;20485;-82
2023/06/27 08:45:41;;;;;;;14.57;8.82;;;;;;;;;;5081941;28;20033;-82
2023/06/27 08:48:09;;;;;;;19.10;9.45;;;;;;;;;;5086704;28;20764;-82
2023/06/27 08:50:42;;;;;;;17.33;9.90;;;;;;;;;;5082962;28;20634;-83
2023/06/27 08:53:12;;;;;;;16.63;9.65;;;;;;;;;;5067332;28;20029;-86
2023/06/27 08:55:47;;;;;;;16.50;9.52;;;;;;;;;;5081145;28;20028;-83
2023/06/27 08:58:15;;;;;;;19.95;9.63;;;;;;;;;;5067949;28;20039;-84
2023/06/27 09:00:43;;;;;;;18.30;9.05;;;;;;;;;;5069189;28;20025;-84
2023/06/27 09:03:09;;;;;;;16.13;9.10;;;;;;;;;;5080356;28;20032;-84
2023/06/27 09:05:35;;;;;;;20.00;9.70;;;;;;;;;;5073576;28;20050;-82
2023/06/27 09:08:02;;;;;;;16.40;9.10;;;;;;;;;;5065580;28;20417;-82
2023/06/27 09:10:28;;;;;;;15.02;8.20;;;;;;;;;;5063003;28;20033;-83
2023/06/27 09:12:55;;;;;;;13.57;8.45;;;;;;;;;;5079132;28;20082;-82
2023/06/27 09:15:21;;;;;;;13.60;8.32;;;;;;;;;;5065570;28;20020;-83
2023/06/27 09:17:47;;;;;;;15.02;8.32;;;;;;;;;;5080962;28;20017;-82
2023/06/27 09:20:16;;;;;;;15.50;8.80;;;;;;;;;;5068831;28;20024;-80
2023/06/27 09:22:43;;;;;;;14.82;8.27;;;;;;;;;;5065883;28;20505;-83
2023/06/27 09:25:10;;;;;;;18.33;8.30;;;;;;;;;;5077699;28;20048;-84
2023/06/27 09:27:38;;;;;;;18.83;9.60;;;;;;;;;;5086200;28;20024;-82
2023/06/27 09:30:05;;;;;;;14.10;8.93;;;;;;;;;;5081640;28;20032;-82
2023/06/27 09:32:31;;;;;;;20.48;9.93;;;;;;;;;;5065222;28;20115;-81
2023/06/27 09:35:01;;;;;;;18.23;10.00;;;;;;;;;;5078581;28;20469;-82
2023/06/27 09:37:34;;;;;;;15.38;9.82;;;;;;;;;;5079582;28;20029;-81
2023/06/27 09:40:16;;;;;;;17.38;10.07;;;;;;;;;;5062237;28;20028;-82
2023/06/27 09:42:52;;;;;;;15.02;8.90;;;;;;;;;;5062383;28;20048;-81
2023/06/27 09:45:19;;;;;;;19.15;9.80;;;;;;;;;;5076570;28;21277;-81
2023/06/27 09:47:47;;;;;;;17.20;8.57;;;;;;;;;;5062868;28;20028;-87
2023/06/27 09:50:13;;;;;;;22.33;10.30;;;;;;;;;;5067097;28;20090;-81
2023/06/27 09:52:39;;;;;;;17.95;9.98;;;;;;;;;;5080252;28;20481;-84
2023/06/27 09:55:17;;;;;;;14.63;9.80;;;;;;;;;;5065381;28;20035;-84
2023/06/27 09:57:44;;;;;;;16.50;10.77;;;;;;;;;;5066688;28;20029;-84
2023/06/27 10:00:11;;;;;;;17.40;10.68;;;;;;;;;;5061658;28;20111;-84
2023/06/27 10:02:38;;;;;;;19.48;10.50;;;;;;;;;;5063432;28;20085;-86
2023/06/27 10:05:04;;;;;;;20.70;11.25;;;;;;;;;;5076584;28;20063;-84
2023/06/27 10:07:31;;;;;;;18.42;11.70;;;;;;;;;;5063015;28;20035;-87
2023/06/27 10:09:58;;;;;;;20.20;11.90;;;;;;;;;;5061467;28;20036;-84
2023/06/27 10:12:27;;;;;;;19.05;11.13;;;;;;;;;;5060500;28;20039;-85
2023/06/27 10:14:53;;;;;;;21.27;12.85;;;;;;;;;;5066316;28;20024;-81
2023/06/27 10:17:20;;;;;;;17.55;11.20;;;;;;;;;;5058890;28;20032;-82
2023/06/27 10:19:46;;;;;;;21.52;12.20;;;;;;;;;;5064181;28;20051;-84
2023/06/27 10:22:17;;;;;;;17.88;11.57;;;;;;;;;;5080602;28;20028;-80
2023/06/27 10:24:44;;;;;;;19.85;11.45;;;;;;;;;;5061628;28;20028;-80
2023/06/27 10:27:13;;;;;;;23.88;12.98;;;;;;;;;;5078870;28;20074;-82
2023/06/27 10:29:43;;;;;;;20.77;11.88;;;;;;;;;;5061925;28;20035;-81
2023/06/27 10:32:11;;;;;;;21.60;12.27;;;;;;;;;;5062313;28;20044;-82
2023/06/27 10:34:42;;;;;;;23.27;12.90;;;;;;;;;;5057815;28;20027;-82
2023/06/27 10:37:24;;;;;;;19.65;11.55;;;;;;;;;;5057880;28;20025;-81
2023/06/27 10:39:57;;;;;;;20.38;13.50;;;;;;;;;;5059706;28;20024;-80
2023/06/27 10:42:23;;;;;;;26.83;12.98;;;;;;;;;;5062564;28;20031;-81
2023/06/27 10:44:55;;;;;;;22.50;13.50;;;;;;;;;;5077088;28;20113;-82
2023/06/27 10:47:21;;;;;;;22.50;11.73;;;;;;;;;;5063782;28;20040;-82
2023/06/27 10:49:48;;;;;;;21.00;12.38;;;;;;;;;;5061053;28;20029;-81
2023/06/27 10:52:22;;;;;;;22.17;13.00;;;;;;;;;;5062069;28;20119;-84
2023/06/27 10:55:08;;;;;;;23.35;12.50;;;;;;;;;;5060556;28;20025;-84
2023/06/27 10:57:40;;;;;;;24.08;13.80;;;;;;;;;;5069368;28;20123;-80
2023/06/27 11:00:36;;;;;;;23.23;12.82;;;;;;;;;;5060643;28;20063;-81
2023/06/27 11:03:06;;;;;;;22.10;13.48;;;;;;;;;;5063181;28;20068;-81
2023/06/27 11:05:55;;;;;;;22.98;12.88;;;;;;;;;;5060089;28;20041;-83
2023/06/27 11:08:22;;;;;;;21.40;12.82;;;;;;;;;;5059747;28;20528;-81
2023/06/27 11:11:01;;;;;;;21.33;13.07;;;;;;;;;;5059763;28;20476;-81
2023/06/27 11:13:33;;;;;;;21.65;12.93;;;;;;;;;;5062212;28;20024;-80
2023/06/27 11:15:59;;;;;;;21.63;12.73;;;;;;;;;;5061255;28;20035;-80
2023/06/27 11:18:26;;;;;;;19.55;12.43;;;;;;;;;;5063223;28;20409;-79
2023/06/27 11:20:52;;;;;;;20.85;12.95;;;;;;;;;;5077714;28;20032;-79
2023/06/27 11:23:24;;;;;;;20.90;12.20;;;;;;;;;;5061487;28;20028;-84
2023/06/27 11:25:50;;;;;;;20.05;11.80;;;;;;;;;;5058648;28;20036;-84
2023/06/27 11:28:18;;;;;;;24.23;13.23;;;;;;;;;;5059587;28;20032;-84
2023/06/27 11:30:44;;;;;;;20.08;11.95;;;;;;;;;;5065529;28;20083;-81
2023/06/27 11:33:14;;;;;;;23.05;12.50;;;;;;;;;;5061353;28;20047;-84
2023/06/27 11:35:43;;;;;;;20.63;12.73;;;;;;;;;;5065093;28;20027;-81
2023/06/27 11:38:10;;;;;;;22.73;12.43;;;;;;;;;;5072565;28;20029;-86
2023/06/27 11:40:38;;;;;;;23.70;12.57;;;;;;;;;;5064106;28;20031;-82
2023/06/27 11:43:05;;;;;;;20.70;13.23;;;;;;;;;;5064446;28;20109;-86
2023/06/27 11:45:31;;;;;;;23.63;12.65;;;;;;;;;;5064568;28;20033;-81
2023/06/27 11:48:01;;;;;;;23.38;12.77;;;;;;;;;;5066929;28;20036;-81
2023/06/27 11:50:27;;;;;;;21.20;12.43;;;;;;;;;;5063536;28;20032;-82
2023/06/27 11:52:56;;;;;;;19.60;13.00;;;;;;;;;;5079737;28;20076;-81
2023/06/27 11:55:22;;;;;;;21.13;11.80;;;;;;;;;;5079450;28;20029;-81
2023/06/27 11:57:51;;;;;;;26.10;13.35;;;;;;;;;;5063289;28;20091;-82
2023/06/27 12:00:20;;;;;;;21.75;12.48;;;;;;;;;;5062909;28;20043;-82
2023/06/27 12:02:47;;;;;;;21.58;11.70;;;;;;;;;;5075856;28;20067;-82
2023/06/27 12:05:17;;;;;;;18.77;11.48;;;;;;;;;;5081934;28;20029;-82
2023/06/27 12:08:02;;;;;;;18.92;11.98;;;;;;;;;;5065846;28;20028;-82
2023/06/27 12:10:29;;;;;;;23.60;12.80;;;;;;;;;;5067414;28;20655;-81
2023/06/27 12:12:55;;;;;;;18.75;11.82;;;;;;;;;;5069549;28;20035;-83
2023/06/27 12:15:21;;;;;;;18.60;11.63;;;;;;;;;;5077530;28;20044;-80
2023/06/27 12:17:59;;;;;;;17.83;10.63;;;;;;;;;;5068160;28;20393;-79
2023/06/27 12:20:26;;;;;;;18.33;11.43;;;;;;;;;;5061944;28;20027;-80
2023/06/27 12:22:53;;;;;;;17.88;12.02;;;;;;;;;;5063578;28;20090;-81
2023/06/27 12:25:19;;;;;;;16.67;9.95;;;;;;;;;;5075443;28;20032;-81
2023/06/27 12:27:45;;;;;;;15.38;9.85;;;;;;;;;;5064945;28;20103;-81
2023/06/27 12:30:12;;;;;;;19.70;9.68;;;;;;;;;;5080185;28;20115;-83
2023/06/27 12:32:39;;;;;;;14.88;8.65;;;;;;;;;;5078595;28;20040;-80
2023/06/27 12:35:06;;;;;;;17.08;8.85;;;;;;;;;;5069327;28;20028;-82
2023/06/27 12:37:34;;;;;;;15.05;8.07;;;;;;;;;;5080794;28;20082;-81
2023/06/27 12:40:01;;;;;;;12.60;7.50;;;;;;;;;;5054350;28;20644;-83
2023/06/27 12:42:27;;;;;;;14.70;7.13;;;;;;;;;;5079692;28;20032;-80
2023/06/27 12:44:55;;;;;;;15.48;7.60;;;;;;;;;;5067918;28;20032;-80
2023/06/27 12:47:21;;;;;;;11.93;7.00;;;;;;;;;;5077698;28;21370;-80
2023/06/27 12:49:47;;;;;;;8.13;6.15;;;;;;;;;;5067345;28;20443;-81
2023/06/27 12:52:13;;;;;;;9.23;6.00;;;;;;;;;;5065822;28;20107;-79
2023/06/27 12:54:39;;;;;;;9.00;5.35;;;;;;;;;;5068792;28;20024;-81
2023/06/27 12:57:05;;;;;;;9.75;6.05;;;;;;;;;;5075457;28;20032;-84
2023/06/27 12:59:31;;;;;;;10.48;5.88;;;;;;;;;;5064746;28;20048;-81
2023/06/27 13:02:00;;;;;;;10.73;5.15;;;;;;;;;;5066605;28;20086;-78
2023/06/27 13:04:28;;;;;;;7.40;5.47;;;;;;;;;;5070891;28;20078;-80
2023/06/27 13:06:54;;;;;;;9.73;5.68;;;;;;;;;;5062050;28;20031;-79
2023/06/27 13:09:24;;;;;;;9.88;5.43;;;;;;;;;;5079021;28;20056;-80
2023/06/27 13:11:52;;;;;;;8.95;5.80;;;;;;;;;;5082104;28;20028;-78
2023/06/27 13:14:18;;;;;;;9.00;5.18;;;;;;;;;;5077916;28;20039;-79
2023/06/27 13:16:44;;;;;;;8.73;5.75;;;;;;;;;;5063138;28;20452;-82
2023/06/27 13:19:11;;;;;;;10.50;5.63;;;;;;;;;;5080022;28;20016;-80
2023/06/27 13:21:37;;;;;;;10.85;5.72;;;;;;;;;;5084866;28;20117;-81
2023/06/27 13:24:04;;;;;;;7.57;5.15;;;;;;;;;;5063153;28;20033;-83
2023/06/27 13:26:30;;;;;;;9.63;6.05;;;;;;;;;;5081029;28;20465;-80
2023/06/27 13:28:56;;;;;;;8.82;5.93;;;;;;;;;;5084154;28;20038;-80
2023/06/27 13:31:23;;;;;;;9.77;6.35;;;;;;;;;;5072225;28;20555;-80
2023/06/27 13:33:49;;;;;;;8.25;5.65;;;;;;;;;;5070097;28;21035;-79
2023/06/27 13:36:16;;;;;;;10.57;5.32;;;;;;;;;;5075990;28;20067;-80
2023/06/27 13:38:42;;;;;;;8.90;5.22;;;;;;;;;;5076916;28;20035;-79
2023/06/27 13:41:08;;;;;;;9.13;5.30;;;;;;;;;;5063295;28;20507;-78
2023/06/27 13:43:37;;;;;;;7.65;5.70;;;;;;;;;;5076623;28;20119;-80
2023/06/27 13:46:03;;;;;;;8.52;5.10;;;;;;;;;;5063244;28;20036;-80
2023/06/27 13:48:30;;;;;;;6.30;4.65;;;;;;;;;;5065861;28;20034;-80
2023/06/27 13:50:56;;;;;;;9.20;4.60;;;;;;;;;;5082644;28;20388;-81
2023/06/27 13:53:26;;;;;;;6.75;4.82;;;;;;;;;;5067421;28;20031;-82
2023/06/27 13:55:52;;;;;;;6.65;5.10;;;;;;;;;;5081377;28;20040;-83
2023/06/27 13:58:19;;;;;;;7.07;4.70;;;;;;;;;;5083085;28;20028;-81
2023/06/27 14:00:49;;;;;;;6.55;4.25;;;;;;;;;;5080591;28;20044;-79
2023/06/27 14:03:16;;;;;;;7.80;4.50;;;;;;;;;;5062970;28;20024;-82
2023/06/27 14:05:43;;;;;;;5.82;4.78;;;;;;;;;;5073582;28;20024;-80
2023/06/27 14:08:09;;;;;;;7.32;4.60;;;;;;;;;;5063134;28;20440;-83
2023/06/27 14:10:36;;;;;;;6.97;4.40;;;;;;;;;;5075495;28;20036;-83
2023/06/27 14:13:03;;;;;;;6.75;4.28;;;;;;;;;;5078405;28;20036;-80
2023/06/27 14:15:30;;;;;;;6.15;4.28;;;;;;;;;;5075731;28;20028;-84
2023/06/27 14:17:56;;;;;;;6.43;4.25;;;;;;;;;;5062113;28;20039;-80
2023/06/27 14:20:23;;;;;;;6.22;4.15;;;;;;;;;;5079602;28;20024;-79
2023/06/27 14:22:53;;;;;;;6.47;5.38;;;;;;;;;;5079602;28;20484;-85
2023/06/27 14:25:19;;;;;;;5.50;4.00;;;;;;;;;;5078962;28;20028;-81
2023/06/27 14:27:45;;;;;;;5.93;4.45;;;;;;;;;;5063196;28;20032;-78
2023/06/27 14:30:12;;;;;;;6.65;4.15;;;;;;;;;;5080391;28;20090;-80
2023/06/27 14:32:38;;;;;;;5.63;4.40;;;;;;;;;;5080810;28;20054;-80
2023/06/27 14:35:06;;;;;;;6.68;4.72;;;;;;;;;;5063708;28;20039;-80